Time;durP1;ratioP1;P1;durP2;ratioP2;P2;SDS_P1;SDS_P2;PMS_P1;PMS_P2;Temp;Humidity;BMP_temperature;BMP_pressure;BME280_temperature;BME280_humidity;BME280_pressure;Samples;Min_cycle;Max_cycle;Signal;HPM_P1;HPM_P2
2023/03/26 00:01:09;;;;;;;0.00;0.00;;;;;;;;;;5017245;28;20481;-86
2023/03/26 00:03:36;;;;;;;0.00;0.00;;;;;;;;;;5000774;28;20077;-86
2023/03/26 00:06:07;;;;;;;0.00;0.00;;;;;;;;;;5001232;28;20041;-86
2023/03/26 00:08:34;;;;;;;0.00;0.00;;;;;;;;;;5016936;28;20037;-86
2023/03/26 00:11:00;;;;;;;0.00;0.00;;;;;;;;;;5017529;28;20124;-86
2023/03/26 00:13:26;;;;;;;0.00;0.00;;;;;;;;;;5016780;28;20040;-86
2023/03/26 00:15:52;;;;;;;0.00;0.00;;;;;;;;;;5017050;28;20121;-86
2023/03/26 00:18:20;;;;;;;0.00;0.00;;;;;;;;;;5016783;28;20037;-86
2023/03/26 00:20:46;;;;;;;0.00;0.00;;;;;;;;;;5001248;28;20045;-86
2023/03/26 00:23:13;;;;;;;0.00;0.00;;;;;;;;;;5000394;28;20077;-86
2023/03/26 00:25:40;;;;;;;0.00;0.00;;;;;;;;;;5000656;28;20099;-86
2023/03/26 00:28:07;;;;;;;0.05;0.00;;;;;;;;;;5016828;28;20037;-86
2023/03/26 00:30:34;;;;;;;0.00;0.00;;;;;;;;;;5000942;28;20038;-86
2023/03/26 00:33:00;;;;;;;0.00;0.00;;;;;;;;;;5016813;28;20038;-85
2023/03/26 00:35:28;;;;;;;0.00;0.00;;;;;;;;;;5016735;28;20041;-86
2023/03/26 00:37:54;;;;;;;0.00;0.00;;;;;;;;;;5000410;28;20068;-86
2023/03/26 00:40:20;;;;;;;0.00;0.00;;;;;;;;;;5016661;28;20342;-85
2023/03/26 00:42:46;;;;;;;0.00;0.00;;;;;;;;;;5016515;28;20576;-86
2023/03/26 00:45:12;;;;;;;0.00;0.00;;;;;;;;;;5016520;28;20073;-86
2023/03/26 00:47:39;;;;;;;0.00;0.00;;;;;;;;;;5016418;28;20076;-86
2023/03/26 00:50:06;;;;;;;0.00;0.00;;;;;;;;;;5016835;28;20046;-86
2023/03/26 00:52:34;;;;;;;0.00;0.00;;;;;;;;;;5016262;28;20124;-86
2023/03/26 00:55:00;;;;;;;0.00;0.00;;;;;;;;;;5000302;28;20087;-86
2023/03/26 00:57:28;;;;;;;0.00;0.00;;;;;;;;;;5016233;28;20443;-86
2023/03/26 00:59:54;;;;;;;0.00;0.00;;;;;;;;;;5018083;28;20092;-86
2023/03/26 01:02:20;;;;;;;0.00;0.00;;;;;;;;;;5052427;28;20049;-86
2023/03/26 01:04:54;;;;;;;0.00;0.00;;;;;;;;;;5052634;28;20040;-85
2023/03/26 01:07:21;;;;;;;0.00;0.00;;;;;;;;;;5035958;28;20037;-86
2023/03/26 01:09:51;;;;;;;0.00;0.00;;;;;;;;;;5052955;28;20380;-86
2023/03/26 01:12:19;;;;;;;0.00;0.00;;;;;;;;;;5052305;28;20123;-86
2023/03/26 01:14:53;;;;;;;0.00;0.00;;;;;;;;;;5052804;28;20051;-86
2023/03/26 01:17:19;;;;;;;0.00;0.00;;;;;;;;;;5052847;28;20122;-86
2023/03/26 01:19:44;;;;;;;0.00;0.00;;;;;;;;;;5052444;28;20045;-86
2023/03/26 01:22:13;;;;;;;0.00;0.00;;;;;;;;;;5052381;28;20098;-86
2023/03/26 01:24:40;;;;;;;0.00;0.00;;;;;;;;;;5052267;28;20032;-86
2023/03/26 01:27:16;;;;;;;0.00;0.00;;;;;;;;;;5053053;28;20434;-86
2023/03/26 01:29:47;;;;;;;0.00;0.00;;;;;;;;;;5052027;28;20040;-86
2023/03/26 01:32:31;;;;;;;0.00;0.00;;;;;;;;;;5052701;28;20041;-86
2023/03/26 01:34:57;;;;;;;0.00;0.00;;;;;;;;;;5052220;28;20037;-86
2023/03/26 01:37:31;;;;;;;0.00;0.00;;;;;;;;;;5035937;28;20492;-86
2023/03/26 01:40:05;;;;;;;0.00;0.00;;;;;;;;;;5035500;28;20128;-86
2023/03/26 01:43:07;;;;;;;0.00;0.00;;;;;;;;;;5035352;28;20045;-86
2023/03/26 01:45:34;;;;;;;0.00;0.00;;;;;;;;;;4979115;28;20061;-86
2023/03/26 01:48:00;;;;;;;0.00;0.00;;;;;;;;;;5023656;28;20041;-86
2023/03/26 01:50:26;;;;;;;0.00;0.00;;;;;;;;;;5051961;28;20091;-86
2023/03/26 01:52:52;;;;;;;0.00;0.00;;;;;;;;;;5051937;28;20041;-86
2023/03/26 01:55:18;;;;;;;0.00;0.00;;;;;;;;;;5052024;28;20041;-86
2023/03/26 01:57:54;;;;;;;0.00;0.00;;;;;;;;;;5051717;28;20495;-86
2023/03/26 02:00:31;;;;;;;0.00;0.00;;;;;;;;;;5038859;28;20061;-86
2023/03/26 02:03:18;;;;;;;0.00;0.00;;;;;;;;;;5015738;28;20053;-86
2023/03/26 02:05:50;;;;;;;0.00;0.00;;;;;;;;;;5016116;28;20057;-86
2023/03/26 02:08:35;;;;;;;0.00;0.00;;;;;;;;;;4999327;28;20049;-86
2023/03/26 02:11:10;;;;;;;0.00;0.00;;;;;;;;;;4999550;28;20037;-86
2023/03/26 02:13:36;;;;;;;0.00;0.00;;;;;;;;;;5033192;28;20041;-86
2023/03/26 02:16:04;;;;;;;0.00;0.00;;;;;;;;;;4999485;28;20088;-86
2023/03/26 02:18:37;;;;;;;0.00;0.00;;;;;;;;;;5015125;28;20087;-86
2023/03/26 02:21:14;;;;;;;0.00;0.00;;;;;;;;;;4999057;28;20044;-86
2023/03/26 02:23:46;;;;;;;0.00;0.00;;;;;;;;;;5015089;28;20045;-86
2023/03/26 02:26:14;;;;;;;0.00;0.00;;;;;;;;;;5015492;28;20148;-86
2023/03/26 02:28:40;;;;;;;0.00;0.00;;;;;;;;;;5014895;28;20073;-85
2023/03/26 02:31:09;;;;;;;0.00;0.00;;;;;;;;;;5015147;28;20044;-86
2023/03/26 02:33:36;;;;;;;0.00;0.00;;;;;;;;;;4998641;28;20053;-86
2023/03/26 02:36:02;;;;;;;0.00;0.00;;;;;;;;;;5015338;28;20052;-86
2023/03/26 02:38:32;;;;;;;0.00;0.00;;;;;;;;;;5015474;28;20431;-86
2023/03/26 02:40:58;;;;;;;0.00;0.00;;;;;;;;;;4998889;28;20048;-86
2023/03/26 02:43:24;;;;;;;0.00;0.00;;;;;;;;;;5014806;28;20131;-86
2023/03/26 02:45:50;;;;;;;0.00;0.00;;;;;;;;;;5015201;28;20045;-86
2023/03/26 02:48:17;;;;;;;0.00;0.00;;;;;;;;;;4998966;28;20148;-86
2023/03/26 02:50:43;;;;;;;0.00;0.00;;;;;;;;;;5015287;28;20046;-86
2023/03/26 02:53:10;;;;;;;0.00;0.00;;;;;;;;;;5015194;28;20033;-86
2023/03/26 02:55:37;;;;;;;0.00;0.00;;;;;;;;;;5014838;28;20049;-86
2023/03/26 02:58:03;;;;;;;0.00;0.00;;;;;;;;;;5014997;28;20439;-85
2023/03/26 03:00:29;;;;;;;0.00;0.00;;;;;;;;;;5042580;28;20082;-86
2023/03/26 03:02:58;;;;;;;0.00;0.00;;;;;;;;;;5051446;28;20052;-86
2023/03/26 03:05:30;;;;;;;0.00;0.00;;;;;;;;;;5050914;28;20057;-86
2023/03/26 03:07:56;;;;;;;0.00;0.00;;;;;;;;;;5035093;28;20397;-87
2023/03/26 03:10:23;;;;;;;0.00;0.00;;;;;;;;;;5050930;28;20090;-86
2023/03/26 03:12:49;;;;;;;0.00;0.00;;;;;;;;;;5051180;28;20472;-86
2023/03/26 03:15:15;;;;;;;0.00;0.00;;;;;;;;;;5050966;28;20041;-86
2023/03/26 03:17:41;;;;;;;0.00;0.00;;;;;;;;;;5051402;28;20132;-86
2023/03/26 03:20:10;;;;;;;0.00;0.00;;;;;;;;;;5050965;28;20484;-86
2023/03/26 03:22:37;;;;;;;0.00;0.00;;;;;;;;;;5051047;28;20045;-86
2023/03/26 03:25:04;;;;;;;0.00;0.00;;;;;;;;;;5050740;28;20087;-86
2023/03/26 03:27:30;;;;;;;0.00;0.00;;;;;;;;;;5051004;28;20037;-87
2023/03/26 03:29:57;;;;;;;0.00;0.00;;;;;;;;;;5050822;28;20073;-86
2023/03/26 03:32:24;;;;;;;0.00;0.00;;;;;;;;;;5054560;28;20438;-86
2023/03/26 03:34:50;;;;;;;0.00;0.00;;;;;;;;;;5054379;28;20044;-86
2023/03/26 03:37:16;;;;;;;0.00;0.00;;;;;;;;;;5054438;28;20047;-86
2023/03/26 03:39:42;;;;;;;0.00;0.00;;;;;;;;;;5054213;28;20037;-86
2023/03/26 03:42:09;;;;;;;0.00;0.00;;;;;;;;;;5054290;28;20045;-86
2023/03/26 03:44:35;;;;;;;0.00;0.00;;;;;;;;;;5037593;28;20041;-86
2023/03/26 03:47:01;;;;;;;0.00;0.00;;;;;;;;;;5054162;28;20045;-86
2023/03/26 03:49:27;;;;;;;0.00;0.00;;;;;;;;;;5054396;28;20146;-86
2023/03/26 03:51:53;;;;;;;0.00;0.00;;;;;;;;;;5054741;28;20059;-86
2023/03/26 03:54:19;;;;;;;0.00;0.00;;;;;;;;;;5054008;28;20460;-86
2023/03/26 03:56:46;;;;;;;0.00;0.00;;;;;;;;;;5054417;28;20036;-86
2023/03/26 03:59:12;;;;;;;0.00;0.00;;;;;;;;;;5053857;28;20072;-86
2023/03/26 04:01:38;;;;;;;0.00;0.00;;;;;;;;;;5054255;28;20049;-86
2023/03/26 04:04:04;;;;;;;0.00;0.00;;;;;;;;;;5053626;28;20045;-86
2023/03/26 04:06:30;;;;;;;0.00;0.00;;;;;;;;;;5053789;28;20065;-86
2023/03/26 04:08:56;;;;;;;0.00;0.00;;;;;;;;;;5053719;28;20039;-87
2023/03/26 04:11:22;;;;;;;0.00;0.00;;;;;;;;;;5053709;28;20468;-86
2023/03/26 04:13:48;;;;;;;0.00;0.00;;;;;;;;;;5053627;28;20041;-86
2023/03/26 04:16:16;;;;;;;0.00;0.00;;;;;;;;;;5053905;28;20454;-86
2023/03/26 04:18:44;;;;;;;0.00;0.00;;;;;;;;;;5053966;28;20150;-86
2023/03/26 04:21:11;;;;;;;0.00;0.00;;;;;;;;;;5053674;28;20492;-85
2023/03/26 04:23:37;;;;;;;0.00;0.00;;;;;;;;;;5053861;28;20044;-86
2023/03/26 04:26:09;;;;;;;0.00;0.00;;;;;;;;;;5053373;28;20044;-86
2023/03/26 04:28:56;;;;;;;0.00;0.00;;;;;;;;;;5037046;28;20498;-86
2023/03/26 04:31:27;;;;;;;0.00;0.00;;;;;;;;;;5053672;28;20037;-86
2023/03/26 04:33:58;;;;;;;0.00;0.00;;;;;;;;;;5054029;28;20040;-86
2023/03/26 04:36:32;;;;;;;0.00;0.00;;;;;;;;;;5053878;28;20053;-86
2023/03/26 04:39:01;;;;;;;0.00;0.00;;;;;;;;;;5054223;28;20084;-86
2023/03/26 04:41:27;;;;;;;0.00;0.00;;;;;;;;;;5053247;28;20045;-86
2023/03/26 04:43:55;;;;;;;0.00;0.00;;;;;;;;;;5036780;28;20048;-86
2023/03/26 04:46:22;;;;;;;0.00;0.00;;;;;;;;;;5053419;28;20128;-86
2023/03/26 04:48:48;;;;;;;0.00;0.00;;;;;;;;;;5053884;28;20094;-87
2023/03/26 04:51:18;;;;;;;0.00;0.00;;;;;;;;;;5053175;28;20059;-86
2023/03/26 04:53:51;;;;;;;0.00;0.00;;;;;;;;;;5053200;28;20041;-86
2023/03/26 04:56:36;;;;;;;0.00;0.00;;;;;;;;;;5052991;28;20095;-86
2023/03/26 04:59:02;;;;;;;0.00;0.00;;;;;;;;;;5053564;28;20063;-86
2023/03/26 05:01:29;;;;;;;0.00;0.00;;;;;;;;;;5053286;28;20060;-86
2023/03/26 05:03:57;;;;;;;0.00;0.00;;;;;;;;;;5053427;28;20493;-87
2023/03/26 05:06:24;;;;;;;0.00;0.00;;;;;;;;;;5036327;28;20231;-86
2023/03/26 05:08:50;;;;;;;0.00;0.00;;;;;;;;;;5053058;28;20037;-87
2023/03/26 05:11:16;;;;;;;0.00;0.00;;;;;;;;;;5052884;28;20078;-86
2023/03/26 05:13:42;;;;;;;0.00;0.00;;;;;;;;;;5052782;28;20461;-86
2023/03/26 05:16:10;;;;;;;0.00;0.00;;;;;;;;;;5052865;28;20048;-86
2023/03/26 05:18:36;;;;;;;0.00;0.00;;;;;;;;;;5052506;28;20037;-86
2023/03/26 05:21:02;;;;;;;0.00;0.00;;;;;;;;;;5052568;28;20070;-86
2023/03/26 05:23:29;;;;;;;0.00;0.00;;;;;;;;;;5052337;28;20076;-86
2023/03/26 05:25:55;;;;;;;0.00;0.00;;;;;;;;;;5052359;28;20045;-86
2023/03/26 05:28:23;;;;;;;0.00;0.00;;;;;;;;;;5052893;28;20041;-86
2023/03/26 05:30:51;;;;;;;0.00;0.00;;;;;;;;;;5035952;28;20044;-86
2023/03/26 05:33:18;;;;;;;0.00;0.00;;;;;;;;;;5035656;28;20037;-86
2023/03/26 05:35:44;;;;;;;0.00;0.00;;;;;;;;;;5052487;28;20041;-86
2023/03/26 05:38:10;;;;;;;0.00;0.00;;;;;;;;;;5052643;28;20048;-86
2023/03/26 05:40:36;;;;;;;0.00;0.00;;;;;;;;;;5052449;28;20483;-86
2023/03/26 05:43:02;;;;;;;0.00;0.00;;;;;;;;;;5052385;28;20041;-86
2023/03/26 05:45:28;;;;;;;0.00;0.00;;;;;;;;;;5052578;28;20036;-86
2023/03/26 05:47:55;;;;;;;0.00;0.00;;;;;;;;;;5052709;28;20041;-86
2023/03/26 05:50:21;;;;;;;0.00;0.00;;;;;;;;;;5052153;28;20051;-86
2023/03/26 05:52:47;;;;;;;0.00;0.00;;;;;;;;;;5051579;28;20041;-87
2023/03/26 05:55:13;;;;;;;0.00;0.00;;;;;;;;;;5051627;28;20098;-87
2023/03/26 05:57:40;;;;;;;0.00;0.00;;;;;;;;;;5052224;28;20048;-86
2023/03/26 06:00:10;;;;;;;0.00;0.00;;;;;;;;;;5035124;28;20056;-86
2023/03/26 06:02:37;;;;;;;0.00;0.00;;;;;;;;;;5036308;28;20056;-86
2023/03/26 06:05:03;;;;;;;0.00;0.00;;;;;;;;;;5054986;28;20044;-87
2023/03/26 06:07:32;;;;;;;0.00;0.00;;;;;;;;;;5053807;28;20068;-86
2023/03/26 06:09:58;;;;;;;0.00;0.00;;;;;;;;;;5037190;28;20427;-86
2023/03/26 06:12:24;;;;;;;0.00;0.00;;;;;;;;;;5052674;28;20104;-86
2023/03/26 06:14:50;;;;;;;0.00;0.00;;;;;;;;;;5053500;28;20068;-86
2023/03/26 06:17:16;;;;;;;0.00;0.00;;;;;;;;;;5053880;28;20479;-86
2023/03/26 06:19:42;;;;;;;0.00;0.00;;;;;;;;;;5053641;28;20041;-86
2023/03/26 06:22:08;;;;;;;0.00;0.00;;;;;;;;;;5052850;28;20048;-87
2023/03/26 06:24:34;;;;;;;0.00;0.00;;;;;;;;;;5053820;28;20053;-86
2023/03/26 06:27:00;;;;;;;0.00;0.00;;;;;;;;;;5054154;28;20041;-86
2023/03/26 06:29:26;;;;;;;0.00;0.00;;;;;;;;;;5054161;28;20120;-86
2023/03/26 06:31:52;;;;;;;0.00;0.00;;;;;;;;;;5053618;28;20097;-86
2023/03/26 06:34:19;;;;;;;0.00;0.00;;;;;;;;;;5053781;28;20033;-86
2023/03/26 06:36:47;;;;;;;0.00;0.00;;;;;;;;;;5051289;28;20055;-86
2023/03/26 06:39:13;;;;;;;0.00;0.00;;;;;;;;;;5035214;28;20041;-86
2023/03/26 06:41:40;;;;;;;0.00;0.00;;;;;;;;;;5051143;28;20045;-86
2023/03/26 06:44:06;;;;;;;0.00;0.00;;;;;;;;;;5051118;28;20044;-86
2023/03/26 06:46:32;;;;;;;0.00;0.00;;;;;;;;;;5050835;28;20041;-86
2023/03/26 06:48:58;;;;;;;0.00;0.00;;;;;;;;;;5051428;28;20037;-85
2023/03/26 06:51:24;;;;;;;0.00;0.00;;;;;;;;;;5051309;28;20472;-85
2023/03/26 06:53:50;;;;;;;0.00;0.00;;;;;;;;;;5050992;28;20033;-86
2023/03/26 06:56:16;;;;;;;0.00;0.00;;;;;;;;;;5051310;28;20120;-86
2023/03/26 06:58:42;;;;;;;0.00;0.00;;;;;;;;;;5050134;28;20274;-86
2023/03/26 07:01:08;;;;;;;0.00;0.00;;;;;;;;;;4998271;28;20052;-86
2023/03/26 07:03:34;;;;;;;0.00;0.00;;;;;;;;;;5014724;28;20057;-86
2023/03/26 07:06:00;;;;;;;0.00;0.00;;;;;;;;;;5017925;28;20049;-86
2023/03/26 07:08:26;;;;;;;0.00;0.00;;;;;;;;;;5018760;28;20424;-86
2023/03/26 07:10:52;;;;;;;0.00;0.00;;;;;;;;;;5001989;28;20033;-86
2023/03/26 07:13:18;;;;;;;0.00;0.00;;;;;;;;;;5018416;28;20400;-89
2023/03/26 07:15:44;;;;;;;0.00;0.00;;;;;;;;;;5002968;28;20119;-86
2023/03/26 07:18:10;;;;;;;0.00;0.00;;;;;;;;;;5036221;28;20045;-86
2023/03/26 07:20:36;;;;;;;0.00;0.00;;;;;;;;;;5018532;28;20116;-86
2023/03/26 07:23:03;;;;;;;0.00;0.00;;;;;;;;;;5018211;28;20041;-86
2023/03/26 07:25:29;;;;;;;0.00;0.00;;;;;;;;;;5001990;28;20041;-87
2023/03/26 07:28:11;;;;;;;0.00;0.00;;;;;;;;;;5001623;28;20041;-86
2023/03/26 07:30:52;;;;;;;0.20;0.20;;;;;;;;;;5018785;28;20590;-87
2023/03/26 07:33:30;;;;;;;0.00;0.00;;;;;;;;;;5018236;28;20041;-86
2023/03/26 07:36:10;;;;;;;0.00;0.00;;;;;;;;;;5018291;28;20480;-87
2023/03/26 07:38:42;;;;;;;0.38;0.25;;;;;;;;;;5018335;28;20075;-87
2023/03/26 07:41:12;;;;;;;0.00;0.00;;;;;;;;;;5017938;28;20388;-86
2023/03/26 07:43:38;;;;;;;0.00;0.00;;;;;;;;;;5001722;28;20041;-87
2023/03/26 07:46:04;;;;;;;0.00;0.00;;;;;;;;;;5001518;28;20064;-86
2023/03/26 07:48:41;;;;;;;0.00;0.00;;;;;;;;;;5018344;28;20056;-86
2023/03/26 07:51:07;;;;;;;0.00;0.00;;;;;;;;;;5018252;28;20453;-86
2023/03/26 07:53:33;;;;;;;0.00;0.00;;;;;;;;;;5001135;28;20117;-86
2023/03/26 07:56:02;;;;;;;0.00;0.00;;;;;;;;;;5018094;28;20041;-86
2023/03/26 07:58:47;;;;;;;0.00;0.00;;;;;;;;;;5017657;28;20045;-86
2023/03/26 08:01:27;;;;;;;0.00;0.00;;;;;;;;;;5017837;28;20488;-86
2023/03/26 08:04:06;;;;;;;0.00;0.00;;;;;;;;;;5001354;28;20480;-86
2023/03/26 08:06:36;;;;;;;0.00;0.00;;;;;;;;;;5000929;28;20045;-86
2023/03/26 08:09:09;;;;;;;0.00;0.00;;;;;;;;;;5017367;28;20159;-86
2023/03/26 08:11:35;;;;;;;0.00;0.00;;;;;;;;;;5001102;28;20048;-86
2023/03/26 08:14:23;;;;;;;0.00;0.00;;;;;;;;;;5000886;28;20489;-86
2023/03/26 08:16:55;;;;;;;0.00;0.00;;;;;;;;;;5000513;28;20080;-86
2023/03/26 08:19:28;;;;;;;0.00;0.00;;;;;;;;;;5017299;28;20485;-86
2023/03/26 08:21:58;;;;;;;0.00;0.00;;;;;;;;;;5001238;28;20107;-86
2023/03/26 08:24:24;;;;;;;0.00;0.00;;;;;;;;;;5017338;28;20045;-86
2023/03/26 08:27:00;;;;;;;0.00;0.00;;;;;;;;;;5016965;28;20523;-86
2023/03/26 08:29:31;;;;;;;0.00;0.00;;;;;;;;;;5001121;28;20138;-86
2023/03/26 08:31:57;;;;;;;0.00;0.00;;;;;;;;;;5000719;28;20468;-86
2023/03/26 08:34:23;;;;;;;0.00;0.00;;;;;;;;;;5017171;28;20429;-87
2023/03/26 08:36:49;;;;;;;0.00;0.00;;;;;;;;;;5000660;28;20060;-85
2023/03/26 08:39:15;;;;;;;0.00;0.00;;;;;;;;;;5016819;28;20423;-86
2023/03/26 08:41:59;;;;;;;0.00;0.00;;;;;;;;;;5017014;28;20114;-86
2023/03/26 08:44:48;;;;;;;0.00;0.00;;;;;;;;;;5016992;28;20041;-86
2023/03/26 08:47:37;;;;;;;0.00;0.00;;;;;;;;;;5016434;28;20400;-86
2023/03/26 08:50:09;;;;;;;0.00;0.00;;;;;;;;;;5000845;28;20037;-87
2023/03/26 08:52:52;;;;;;;0.00;0.00;;;;;;;;;;5016619;28;20038;-86
2023/03/26 08:55:35;;;;;;;0.00;0.00;;;;;;;;;;5016451;28;20045;-86
2023/03/26 08:58:20;;;;;;;0.00;0.00;;;;;;;;;;5016390;28;20049;-86
2023/03/26 09:00:57;;;;;;;0.00;0.00;;;;;;;;;;5032124;28;20075;-86
2023/03/26 09:03:43;;;;;;;0.00;0.00;;;;;;;;;;5052610;28;20127;-88
2023/03/26 09:06:24;;;;;;;0.00;0.00;;;;;;;;;;5022633;28;20053;-88
2023/03/26 09:09:09;;;;;;;0.00;0.00;;;;;;;;;;5053005;28;20223;-90
2023/03/26 09:11:47;;;;;;;0.00;0.00;;;;;;;;;;5053177;28;20049;-86
2023/03/26 09:14:26;;;;;;;0.00;0.00;;;;;;;;;;5052776;28;20131;-86
2023/03/26 09:17:19;;;;;;;0.20;0.00;;;;;;;;;;5052912;28;20087;-87
2023/03/26 09:20:04;;;;;;;0.00;0.00;;;;;;;;;;5052501;28;20545;-86
2023/03/26 09:23:08;;;;;;;0.00;0.00;;;;;;;;;;5051986;28;20443;-86
2023/03/26 09:25:44;;;;;;;0.00;0.00;;;;;;;;;;4995532;28;20451;-87
2023/03/26 09:28:10;;;;;;;0.00;0.00;;;;;;;;;;4995461;28;20072;-86
2023/03/26 09:30:54;;;;;;;0.00;0.00;;;;;;;;;;5024820;28;20123;-86
2023/03/26 09:33:33;;;;;;;0.00;0.00;;;;;;;;;;5051680;28;20436;-86
2023/03/26 09:36:19;;;;;;;0.00;0.00;;;;;;;;;;5051861;28;20193;-87
2023/03/26 09:38:51;;;;;;;0.00;0.00;;;;;;;;;;5051741;28;20044;-88
2023/03/26 09:41:20;;;;;;;0.35;0.35;;;;;;;;;;5052967;28;20062;-86
2023/03/26 09:44:02;;;;;;;0.00;0.00;;;;;;;;;;5051378;28;20079;-87
2023/03/26 09:46:46;;;;;;;0.00;0.00;;;;;;;;;;5051807;28;20041;-86
2023/03/26 09:49:21;;;;;;;0.00;0.00;;;;;;;;;;5051291;28;20080;-86
2023/03/26 09:51:47;;;;;;;0.00;0.00;;;;;;;;;;5034963;28;20241;-87
2023/03/26 09:54:13;;;;;;;0.00;0.00;;;;;;;;;;5051093;28;20116;-86
2023/03/26 09:56:40;;;;;;;0.00;0.00;;;;;;;;;;5051527;28;20443;-87
2023/03/26 09:59:24;;;;;;;0.00;0.00;;;;;;;;;;5034652;28;20064;-88
2023/03/26 10:01:56;;;;;;;0.00;0.00;;;;;;;;;;5051662;28;20052;-86
2023/03/26 10:04:22;;;;;;;0.00;0.00;;;;;;;;;;5051287;28;20102;-88
2023/03/26 10:06:48;;;;;;;0.00;0.00;;;;;;;;;;5051370;28;20102;-86
2023/03/26 10:09:20;;;;;;;0.00;0.00;;;;;;;;;;5050779;28;20123;-86
2023/03/26 10:12:05;;;;;;;0.00;0.00;;;;;;;;;;5034593;28;20120;-86
2023/03/26 10:14:43;;;;;;;0.00;0.00;;;;;;;;;;5050994;28;20048;-86
2023/03/26 10:17:10;;;;;;;0.00;0.00;;;;;;;;;;5048016;28;20144;-86
2023/03/26 10:19:50;;;;;;;0.00;0.00;;;;;;;;;;5026356;28;20049;-86
2023/03/26 10:22:37;;;;;;;0.00;0.00;;;;;;;;;;5044356;28;20041;-86
2023/03/26 10:25:28;;;;;;;0.00;0.00;;;;;;;;;;5009311;28;20056;-86
2023/03/26 10:28:07;;;;;;;0.00;0.00;;;;;;;;;;5031647;28;20106;-86
2023/03/26 10:30:52;;;;;;;0.00;0.00;;;;;;;;;;5031261;28;20361;-86
2023/03/26 10:33:18;;;;;;;0.00;0.00;;;;;;;;;;5030849;28;20042;-86
2023/03/26 10:35:50;;;;;;;0.00;0.00;;;;;;;;;;5030980;28;20118;-86
2023/03/26 10:38:22;;;;;;;0.00;0.00;;;;;;;;;;5043793;28;20048;-85
2023/03/26 10:40:47;;;;;;;0.00;0.00;;;;;;;;;;5050400;28;20052;-85
2023/03/26 10:43:18;;;;;;;0.00;0.00;;;;;;;;;;5050671;28;20044;-86
2023/03/26 10:45:59;;;;;;;0.00;0.00;;;;;;;;;;5034688;28;20232;-86
2023/03/26 10:48:31;;;;;;;3.13;0.57;;;;;;;;;;5050545;28;20044;-86
2023/03/26 10:51:12;;;;;;;0.00;0.00;;;;;;;;;;5050789;28;20314;-86
2023/03/26 10:53:53;;;;;;;0.00;0.00;;;;;;;;;;5036484;28;20445;-86
2023/03/26 10:56:26;;;;;;;0.00;0.00;;;;;;;;;;5049794;28;20067;-87
2023/03/26 10:58:54;;;;;;;0.22;0.10;;;;;;;;;;5047883;28;20492;-86
2023/03/26 11:01:39;;;;;;;0.00;0.00;;;;;;;;;;4995430;28;20133;-86
2023/03/26 11:04:29;;;;;;;0.00;0.00;;;;;;;;;;4978972;28;20056;-85
2023/03/26 11:07:07;;;;;;;0.00;0.00;;;;;;;;;;4959198;28;20349;-86
2023/03/26 11:09:42;;;;;;;0.20;0.20;;;;;;;;;;4978907;28;20038;-87
2023/03/26 11:12:23;;;;;;;0.00;0.00;;;;;;;;;;4995093;28;20042;-86
2023/03/26 11:14:49;;;;;;;0.00;0.00;;;;;;;;;;4994683;28;20049;-86
2023/03/26 11:17:29;;;;;;;0.00;0.00;;;;;;;;;;4995095;28;20042;-88
2023/03/26 11:20:05;;;;;;;0.00;0.00;;;;;;;;;;4994576;28;20046;-86
2023/03/26 11:22:30;;;;;;;;;;;;;;;;;;4979122;28;20042;-88
2023/03/26 11:25:03;;;;;;;0.00;0.00;;;;;;;;;;4978116;28;19918;-86
2023/03/26 11:27:44;;;;;;;0.00;0.00;;;;;;;;;;4978576;28;20054;-87
2023/03/26 11:30:10;;;;;;;0.00;0.00;;;;;;;;;;4993926;28;20073;-86
2023/03/26 11:32:42;;;;;;;0.00;0.00;;;;;;;;;;4987276;28;20442;-86
2023/03/26 11:35:21;;;;;;;0.00;0.00;;;;;;;;;;4999356;28;20044;-86
2023/03/26 11:37:50;;;;;;;0.00;0.00;;;;;;;;;;5014115;28;20384;-86
2023/03/26 11:40:20;;;;;;;0.00;0.00;;;;;;;;;;5014021;28;20427;-86
2023/03/26 11:42:47;;;;;;;0.00;0.00;;;;;;;;;;5013822;28;20052;-86
2023/03/26 11:45:16;;;;;;;0.00;0.00;;;;;;;;;;4997425;28;20049;-86
2023/03/26 11:47:51;;;;;;;0.00;0.00;;;;;;;;;;5014003;28;20038;-86
2023/03/26 11:50:23;;;;;;;0.00;0.00;;;;;;;;;;4997439;28;20037;-86
2023/03/26 11:52:49;;;;;;;0.00;0.00;;;;;;;;;;4999769;28;20037;-86
2023/03/26 11:55:15;;;;;;;0.15;0.05;;;;;;;;;;5017319;28;20064;-86
2023/03/26 11:57:45;;;;;;;0.00;0.00;;;;;;;;;;5017411;28;20037;-86
2023/03/26 12:00:16;;;;;;;0.00;0.00;;;;;;;;;;5023009;28;20059;-86
2023/03/26 12:02:43;;;;;;;0.00;0.00;;;;;;;;;;5037661;28;20090;-87
2023/03/26 12:05:12;;;;;;;0.00;0.00;;;;;;;;;;5039348;28;20076;-87
2023/03/26 12:07:46;;;;;;;0.00;0.00;;;;;;;;;;5033466;28;20420;-86
2023/03/26 12:10:31;;;;;;;0.00;0.00;;;;;;;;;;5030235;28;20033;-86
2023/03/26 12:13:01;;;;;;;0.00;0.00;;;;;;;;;;5033605;28;20124;-86
2023/03/26 12:15:30;;;;;;;0.00;0.00;;;;;;;;;;5033435;28;20041;-87
2023/03/26 12:17:57;;;;;;;0.00;0.00;;;;;;;;;;5017199;28;20048;-86
2023/03/26 12:20:26;;;;;;;0.00;0.00;;;;;;;;;;5026130;28;20124;-86
2023/03/26 12:23:15;;;;;;;0.00;0.00;;;;;;;;;;5033353;28;20048;-86
2023/03/26 12:25:41;;;;;;;0.00;0.00;;;;;;;;;;5016336;28;20046;-86
2023/03/26 12:28:13;;;;;;;0.00;0.00;;;;;;;;;;5033417;28;20447;-86
2023/03/26 12:30:52;;;;;;;0.00;0.00;;;;;;;;;;5033532;28;20041;-86
2023/03/26 12:33:24;;;;;;;0.00;0.00;;;;;;;;;;5038710;28;20408;-86
2023/03/26 12:35:50;;;;;;;0.00;0.00;;;;;;;;;;5039904;28;20077;-86
2023/03/26 12:38:31;;;;;;;0.00;0.00;;;;;;;;;;5054803;28;20152;-86
2023/03/26 12:41:17;;;;;;;0.00;0.00;;;;;;;;;;5036742;28;20041;-87
2023/03/26 12:43:46;;;;;;;0.00;0.00;;;;;;;;;;5032526;28;20120;-86
2023/03/26 12:46:26;;;;;;;0.00;0.00;;;;;;;;;;5034755;28;20049;-86
2023/03/26 12:48:53;;;;;;;0.00;0.00;;;;;;;;;;5041722;28;20091;-86
2023/03/26 12:51:31;;;;;;;0.00;0.00;;;;;;;;;;5033979;28;20038;-86
2023/03/26 12:54:13;;;;;;;0.00;0.00;;;;;;;;;;5025126;28;20041;-86
2023/03/26 12:56:48;;;;;;;0.00;0.00;;;;;;;;;;5023186;28;20038;-86
2023/03/26 12:59:27;;;;;;;0.00;0.00;;;;;;;;;;5017305;28;20149;-85
2023/03/26 13:02:06;;;;;;;0.00;0.00;;;;;;;;;;5047444;28;20072;-86
2023/03/26 13:04:47;;;;;;;0.00;0.00;;;;;;;;;;5052367;28;20048;-86
2023/03/26 13:07:22;;;;;;;0.00;0.00;;;;;;;;;;5053125;28;20407;-86
2023/03/26 13:09:55;;;;;;;0.00;0.00;;;;;;;;;;5052551;28;20070;-86
2023/03/26 13:12:39;;;;;;;0.00;0.00;;;;;;;;;;5052634;28;20075;-86
2023/03/26 13:15:05;;;;;;;0.10;0.10;;;;;;;;;;5036061;28;20063;-86
2023/03/26 13:17:34;;;;;;;0.52;0.08;;;;;;;;;;5036126;28;20060;-86
2023/03/26 13:20:11;;;;;;;0.00;0.00;;;;;;;;;;5052680;28;20037;-86
2023/03/26 13:22:43;;;;;;;0.00;0.00;;;;;;;;;;5035645;28;20136;-86
2023/03/26 13:25:25;;;;;;;0.00;0.00;;;;;;;;;;5052001;28;20041;-87
2023/03/26 13:27:59;;;;;;;0.10;0.10;;;;;;;;;;5051910;28;20056;-86
2023/03/26 13:30:48;;;;;;;0.00;0.00;;;;;;;;;;5052342;28;20041;-87
2023/03/26 13:33:19;;;;;;;0.00;0.00;;;;;;;;;;5041888;28;20084;-86
2023/03/26 13:36:04;;;;;;;0.00;0.00;;;;;;;;;;5035562;28;20048;-86
2023/03/26 13:38:57;;;;;;;0.00;0.00;;;;;;;;;;5052523;28;20040;-86
2023/03/26 13:41:34;;;;;;;0.00;0.00;;;;;;;;;;5022060;28;20071;-86
2023/03/26 13:44:03;;;;;;;0.00;0.00;;;;;;;;;;5053195;28;20496;-86
2023/03/26 13:46:38;;;;;;;0.00;0.00;;;;;;;;;;5051716;28;20132;-85
2023/03/26 13:49:09;;;;;;;0.00;0.00;;;;;;;;;;5052270;28;20380;-86
2023/03/26 13:51:35;;;;;;;0.00;0.00;;;;;;;;;;5051840;28;20049;-86
2023/03/26 13:54:22;;;;;;;0.00;0.00;;;;;;;;;;5051651;28;20373;-86
2023/03/26 13:56:59;;;;;;;0.00;0.00;;;;;;;;;;5051682;28;20079;-86
2023/03/26 13:59:29;;;;;;;0.00;0.00;;;;;;;;;;5051908;28;20136;-86
2023/03/26 14:01:58;;;;;;;0.00;0.00;;;;;;;;;;5051713;28;20052;-86
2023/03/26 14:04:31;;;;;;;0.00;0.00;;;;;;;;;;5051714;28;20076;-86
2023/03/26 14:07:19;;;;;;;0.00;0.00;;;;;;;;;;5034992;28;20051;-86
2023/03/26 14:10:01;;;;;;;0.00;0.00;;;;;;;;;;5035148;28;20249;-86
2023/03/26 14:12:33;;;;;;;0.00;0.00;;;;;;;;;;5051151;28;20079;-87
2023/03/26 14:15:18;;;;;;;0.00;0.00;;;;;;;;;;5051010;28;20045;-86
2023/03/26 14:18:04;;;;;;;0.00;0.00;;;;;;;;;;5051852;28;20351;-85
2023/03/26 14:20:47;;;;;;;0.00;0.00;;;;;;;;;;5051272;28;20069;-86
2023/03/26 14:23:22;;;;;;;0.00;0.00;;;;;;;;;;5051299;28;20076;-86
2023/03/26 14:26:01;;;;;;;0.00;0.00;;;;;;;;;;5050926;28;20037;-86
2023/03/26 14:28:27;;;;;;;0.00;0.00;;;;;;;;;;5034732;28;20041;-86
2023/03/26 14:31:12;;;;;;;0.00;0.00;;;;;;;;;;5050839;28;20044;-86
2023/03/26 14:33:57;;;;;;;0.00;0.00;;;;;;;;;;5050923;28;20045;-86
2023/03/26 14:36:38;;;;;;;0.00;0.00;;;;;;;;;;5051048;28;20041;-86
2023/03/26 14:39:04;;;;;;;0.98;0.95;;;;;;;;;;5051129;28;20323;-87
2023/03/26 14:41:33;;;;;;;0.00;0.00;;;;;;;;;;5050833;28;20515;-86
2023/03/26 14:43:59;;;;;;;0.00;0.00;;;;;;;;;;5050942;28;20123;-86
2023/03/26 14:46:58;;;;;;;0.00;0.00;;;;;;;;;;5051410;28;20041;-86
2023/03/26 14:49:37;;;;;;;0.10;0.00;;;;;;;;;;4992146;28;20102;-86
2023/03/26 14:52:03;;;;;;;0.00;0.00;;;;;;;;;;5050990;28;20086;-86
2023/03/26 14:54:31;;;;;;;0.00;0.00;;;;;;;;;;5051042;28;20122;-86
2023/03/26 14:57:10;;;;;;;0.00;0.00;;;;;;;;;;5050723;28;20037;-86
2023/03/26 14:59:42;;;;;;;0.00;0.00;;;;;;;;;;5050789;28;20119;-86
2023/03/26 15:02:27;;;;;;;0.00;0.00;;;;;;;;;;5051207;28;20527;-85
2023/03/26 15:04:53;;;;;;;0.00;0.00;;;;;;;;;;5051045;28;20045;-86
2023/03/26 15:07:26;;;;;;;0.00;0.00;;;;;;;;;;5050523;28;20045;-86
2023/03/26 15:09:55;;;;;;;0.00;0.00;;;;;;;;;;5034100;28;20059;-86